sensor_id;sensor_type;location;lat;lon;timestamp;temperature;humidity
67192;HTU21D;54120;53.504;49.426;2023-09-18T00:00:51;11.23;93.74
67192;HTU21D;54120;53.504;49.426;2023-09-18T00:03:21;11.20;93.32
67192;HTU21D;54120;53.504;49.426;2023-09-18T00:05:50;11.15;91.84
67192;HTU21D;54120;53.504;49.426;2023-09-18T00:08:18;11.18;93.60
67192;HTU21D;54120;53.504;49.426;2023-09-18T00:10:49;11.26;95.62
67192;HTU21D;54120;53.504;49.426;2023-09-18T00:13:16;11.53;95.07
67192;HTU21D;54120;53.504;49.426;2023-09-18T00:15:42;11.51;93.88
67192;HTU21D;54120;53.504;49.426;2023-09-18T00:18:10;11.47;93.36
67192;HTU21D;54120;53.504;49.426;2023-09-18T00:20:37;11.51;94.27
67192;HTU21D;54120;53.504;49.426;2023-09-18T00:23:03;11.45;93.71
67192;HTU21D;54120;53.504;49.426;2023-09-18T00:25:29;11.48;94.85
67192;HTU21D;54120;53.504;49.426;2023-09-18T00:27:56;11.57;94.63
67192;HTU21D;54120;53.504;49.426;2023-09-18T00:30:22;11.57;93.59
67192;HTU21D;54120;53.504;49.426;2023-09-18T00:32:48;11.60;95.49
67192;HTU21D;54120;53.504;49.426;2023-09-18T00:35:17;11.68;94.64
67192;HTU21D;54120;53.504;49.426;2023-09-18T00:37:44;11.63;93.46
67192;HTU21D;54120;53.504;49.426;2023-09-18T00:40:11;11.67;94.88
67192;HTU21D;54120;53.504;49.426;2023-09-18T00:42:37;11.69;93.97
67192;HTU21D;54120;53.504;49.426;2023-09-18T00:45:03;11.64;93.99
67192;HTU21D;54120;53.504;49.426;2023-09-18T00:47:29;11.49;93.21
67192;HTU21D;54120;53.504;49.426;2023-09-18T00:49:56;11.40;93.59
67192;HTU21D;54120;53.504;49.426;2023-09-18T00:52:23;11.53;94.83
67192;HTU21D;54120;53.504;49.426;2023-09-18T00:54:50;11.62;93.48
67192;HTU21D;54120;53.504;49.426;2023-09-18T00:57:18;11.53;93.76
67192;HTU21D;54120;53.504;49.426;2023-09-18T00:59:46;11.67;94.72
67192;HTU21D;54120;53.504;49.426;2023-09-18T01:02:12;11.75;94.19
67192;HTU21D;54120;53.504;49.426;2023-09-18T01:04:41;11.87;93.78
67192;HTU21D;54120;53.504;49.426;2023-09-18T01:07:10;11.92;93.17
67192;HTU21D;54120;53.504;49.426;2023-09-18T01:09:36;11.97;92.69
67192;HTU21D;54120;53.504;49.426;2023-09-18T01:14:44;11.82;92.92
67192;HTU21D;54120;53.504;49.426;2023-09-18T01:17:15;11.90;92.57
67192;HTU21D;54120;53.504;49.426;2023-09-18T01:19:45;11.89;92.72
67192;HTU21D;54120;53.504;49.426;2023-09-18T01:22:14;11.86;91.56
67192;HTU21D;54120;53.504;49.426;2023-09-18T01:24:41;11.74;92.79
67192;HTU21D;54120;53.504;49.426;2023-09-18T01:27:09;11.72;92.56
67192;HTU21D;54120;53.504;49.426;2023-09-18T01:29:36;11.62;92.98
67192;HTU21D;54120;53.504;49.426;2023-09-18T01:32:02;11.56;93.46
67192;HTU21D;54120;53.504;49.426;2023-09-18T01:34:32;11.57;93.76
67192;HTU21D;54120;53.504;49.426;2023-09-18T01:36:59;11.54;93.59
67192;HTU21D;54120;53.504;49.426;2023-09-18T01:39:28;11.58;93.85
67192;HTU21D;54120;53.504;49.426;2023-09-18T01:42:06;11.63;93.46
67192;HTU21D;54120;53.504;49.426;2023-09-18T01:44:36;11.60;93.04
67192;HTU21D;54120;53.504;49.426;2023-09-18T01:47:15;11.58;92.34
67192;HTU21D;54120;53.504;49.426;2023-09-18T01:49:42;11.36;91.53
67192;HTU21D;54120;53.504;49.426;2023-09-18T01:52:09;11.16;93.29
67192;HTU21D;54120;53.504;49.426;2023-09-18T01:54:35;11.01;93.56
67192;HTU21D;54120;53.504;49.426;2023-09-18T01:57:02;10.81;92.78
67192;HTU21D;54120;53.504;49.426;2023-09-18T01:59:29;10.83;95.78
67192;HTU21D;54120;53.504;49.426;2023-09-18T02:01:55;10.63;91.42
67192;HTU21D;54120;53.504;49.426;2023-09-18T02:04:22;10.42;90.98
67192;HTU21D;54120;53.504;49.426;2023-09-18T02:06:50;10.23;92.40
67192;HTU21D;54120;53.504;49.426;2023-09-18T02:09:17;10.10;93.27
67192;HTU21D;54120;53.504;49.426;2023-09-18T02:11:45;10.05;93.88
67192;HTU21D;54120;53.504;49.426;2023-09-18T02:14:12;9.97;93.56
67192;HTU21D;54120;53.504;49.426;2023-09-18T02:16:40;9.88;93.55
67192;HTU21D;54120;53.504;49.426;2023-09-18T02:19:11;9.92;94.46
67192;HTU21D;54120;53.504;49.426;2023-09-18T02:21:38;9.99;94.00
67192;HTU21D;54120;53.504;49.426;2023-09-18T02:24:05;9.89;93.31
67192;HTU21D;54120;53.504;49.426;2023-09-18T02:26:31;9.80;94.75
67192;HTU21D;54120;53.504;49.426;2023-09-18T02:28:59;9.78;93.60
67192;HTU21D;54120;53.504;49.426;2023-09-18T02:31:26;9.88;93.69
67192;HTU21D;54120;53.504;49.426;2023-09-18T02:33:53;9.85;93.40
67192;HTU21D;54120;53.504;49.426;2023-09-18T02:36:19;9.97;92.50
67192;HTU21D;54120;53.504;49.426;2023-09-18T02:38:45;9.94;92.05
67192;HTU21D;54120;53.504;49.426;2023-09-18T02:41:11;9.89;92.53
67192;HTU21D;54120;53.504;49.426;2023-09-18T02:43:38;10.03;91.46
67192;HTU21D;54120;53.504;49.426;2023-09-18T02:46:06;10.14;90.82
67192;HTU21D;54120;53.504;49.426;2023-09-18T02:48:32;10.29;90.43
67192;HTU21D;54120;53.504;49.426;2023-09-18T02:51:00;10.44;89.61
67192;HTU21D;54120;53.504;49.426;2023-09-18T02:53:27;10.59;89.24
67192;HTU21D;54120;53.504;49.426;2023-09-18T02:55:55;10.82;87.73
67192;HTU21D;54120;53.504;49.426;2023-09-18T02:58:22;10.98;86.93
67192;HTU21D;54120;53.504;49.426;2023-09-18T03:00:53;11.44;86.20
67192;HTU21D;54120;53.504;49.426;2023-09-18T03:03:25;13.63;76.30
67192;HTU21D;54120;53.504;49.426;2023-09-18T03:05:52;15.67;68.64
67192;HTU21D;54120;53.504;49.426;2023-09-18T03:08:18;17.33;61.11
67192;HTU21D;54120;53.504;49.426;2023-09-18T03:10:45;17.82;58.71
67192;HTU21D;54120;53.504;49.426;2023-09-18T03:13:13;18.25;57.37
67192;HTU21D;54120;53.504;49.426;2023-09-18T03:15:44;19.25;54.06
67192;HTU21D;54120;53.504;49.426;2023-09-18T03:18:11;19.94;52.11
67192;HTU21D;54120;53.504;49.426;2023-09-18T03:20:37;20.76;49.95
67192;HTU21D;54120;53.504;49.426;2023-09-18T03:23:03;21.36;48.76
67192;HTU21D;54120;53.504;49.426;2023-09-18T03:25:29;22.03;46.96
67192;HTU21D;54120;53.504;49.426;2023-09-18T03:27:57;22.52;45.46
67192;HTU21D;54120;53.504;49.426;2023-09-18T03:30:24;22.55;45.42
67192;HTU21D;54120;53.504;49.426;2023-09-18T03:32:51;22.62;45.38
67192;HTU21D;54120;53.504;49.426;2023-09-18T03:35:18;23.08;44.25
67192;HTU21D;54120;53.504;49.426;2023-09-18T03:37:50;23.34;43.79
67192;HTU21D;54120;53.504;49.426;2023-09-18T03:40:17;23.92;42.37
67192;HTU21D;54120;53.504;49.426;2023-09-18T03:42:45;24.48;41.45
67192;HTU21D;54120;53.504;49.426;2023-09-18T03:45:11;24.76;40.69
67192;HTU21D;54120;53.504;49.426;2023-09-18T03:47:38;24.93;40.45
67192;HTU21D;54120;53.504;49.426;2023-09-18T03:50:06;25.52;39.17
67192;HTU21D;54120;53.504;49.426;2023-09-18T03:52:32;26.08;38.06
67192;HTU21D;54120;53.504;49.426;2023-09-18T03:54:58;26.87;36.49
67192;HTU21D;54120;53.504;49.426;2023-09-18T03:57:26;27.37;35.59
67192;HTU21D;54120;53.504;49.426;2023-09-18T03:59:52;27.61;35.31
67192;HTU21D;54120;53.504;49.426;2023-09-18T04:02:18;28.23;34.04
67192;HTU21D;54120;53.504;49.426;2023-09-18T04:04:44;28.38;34.00
67192;HTU21D;54120;53.504;49.426;2023-09-18T04:07:10;28.16;34.36
67192;HTU21D;54120;53.504;49.426;2023-09-18T04:09:37;28.21;34.08
67192;HTU21D;54120;53.504;49.426;2023-09-18T04:12:04;28.28;33.95
67192;HTU21D;54120;53.504;49.426;2023-09-18T04:14:34;28.28;34.16
67192;HTU21D;54120;53.504;49.426;2023-09-18T04:17:00;28.75;33.13
67192;HTU21D;54120;53.504;49.426;2023-09-18T04:19:29;28.26;34.15
67192;HTU21D;54120;53.504;49.426;2023-09-18T04:21:55;29.31;32.38
67192;HTU21D;54120;53.504;49.426;2023-09-18T04:24:21;29.66;31.80
67192;HTU21D;54120;53.504;49.426;2023-09-18T04:26:49;30.17;31.00
67192;HTU21D;54120;53.504;49.426;2023-09-18T04:29:17;30.39;30.00
67192;HTU21D;54120;53.504;49.426;2023-09-18T04:31:43;30.80;28.93
67192;HTU21D;54120;53.504;49.426;2023-09-18T04:34:11;30.98;28.84
67192;HTU21D;54120;53.504;49.426;2023-09-18T04:36:37;31.21;28.23
67192;HTU21D;54120;53.504;49.426;2023-09-18T04:39:04;31.24;28.42
67192;HTU21D;54120;53.504;49.426;2023-09-18T04:41:32;31.64;26.90
67192;HTU21D;54120;53.504;49.426;2023-09-18T04:43:58;31.87;25.90
67192;HTU21D;54120;53.504;49.426;2023-09-18T04:46:25;32.29;25.29
67192;HTU21D;54120;53.504;49.426;2023-09-18T04:48:51;32.41;25.17
67192;HTU21D;54120;53.504;49.426;2023-09-18T04:51:17;32.04;26.42
67192;HTU21D;54120;53.504;49.426;2023-09-18T04:53:43;31.48;27.79
67192;HTU21D;54120;53.504;49.426;2023-09-18T04:56:09;31.49;27.60
67192;HTU21D;54120;53.504;49.426;2023-09-18T04:58:38;31.70;26.71
67192;HTU21D;54120;53.504;49.426;2023-09-18T05:01:05;32.22;25.89
67192;HTU21D;54120;53.504;49.426;2023-09-18T05:03:35;32.77;25.20
67192;HTU21D;54120;53.504;49.426;2023-09-18T05:06:02;33.29;24.05
67192;HTU21D;54120;53.504;49.426;2023-09-18T05:08:30;33.73;23.88
67192;HTU21D;54120;53.504;49.426;2023-09-18T05:10:57;33.75;23.72
67192;HTU21D;54120;53.504;49.426;2023-09-18T05:13:23;33.34;24.65
67192;HTU21D;54120;53.504;49.426;2023-09-18T05:15:49;33.45;23.40
67192;HTU21D;54120;53.504;49.426;2023-09-18T05:18:15;33.43;23.69
67192;HTU21D;54120;53.504;49.426;2023-09-18T05:20:42;33.04;24.14
67192;HTU21D;54120;53.504;49.426;2023-09-18T05:23:08;33.38;24.49
67192;HTU21D;54120;53.504;49.426;2023-09-18T05:25:34;33.79;23.48
67192;HTU21D;54120;53.504;49.426;2023-09-18T05:28:04;34.25;22.82
67192;HTU21D;54120;53.504;49.426;2023-09-18T05:30:33;34.06;22.72
67192;HTU21D;54120;53.504;49.426;2023-09-18T05:33:01;34.53;22.47
67192;HTU21D;54120;53.504;49.426;2023-09-18T05:35:32;34.86;21.57
67192;HTU21D;54120;53.504;49.426;2023-09-18T05:37:58;34.93;21.85
67192;HTU21D;54120;53.504;49.426;2023-09-18T05:40:26;35.35;21.34
67192;HTU21D;54120;53.504;49.426;2023-09-18T05:42:53;34.98;21.78
67192;HTU21D;54120;53.504;49.426;2023-09-18T05:45:20;34.81;21.79
67192;HTU21D;54120;53.504;49.426;2023-09-18T05:47:46;34.52;22.37
67192;HTU21D;54120;53.504;49.426;2023-09-18T05:50:13;34.61;22.14
67192;HTU21D;54120;53.504;49.426;2023-09-18T05:52:44;35.00;22.16
67192;HTU21D;54120;53.504;49.426;2023-09-18T05:55:10;34.77;22.28
67192;HTU21D;54120;53.504;49.426;2023-09-18T05:57:37;35.29;21.65
67192;HTU21D;54120;53.504;49.426;2023-09-18T06:00:04;35.58;21.26
67192;HTU21D;54120;53.504;49.426;2023-09-18T06:02:30;35.03;22.50
67192;HTU21D;54120;53.504;49.426;2023-09-18T06:05:00;34.32;23.28
67192;HTU21D;54120;53.504;49.426;2023-09-18T06:07:27;34.21;23.66
67192;HTU21D;54120;53.504;49.426;2023-09-18T06:09:53;34.73;22.84
67192;HTU21D;54120;53.504;49.426;2023-09-18T06:12:19;34.63;21.71
67192;HTU21D;54120;53.504;49.426;2023-09-18T06:14:47;34.21;22.25
67192;HTU21D;54120;53.504;49.426;2023-09-18T06:17:14;34.31;22.14
67192;HTU21D;54120;53.504;49.426;2023-09-18T06:19:41;34.70;21.57
67192;HTU21D;54120;53.504;49.426;2023-09-18T06:22:07;35.18;20.89
67192;HTU21D;54120;53.504;49.426;2023-09-18T06:24:34;34.44;21.99
67192;HTU21D;54120;53.504;49.426;2023-09-18T06:27:01;34.55;21.62
67192;HTU21D;54120;53.504;49.426;2023-09-18T06:29:27;34.45;22.36
67192;HTU21D;54120;53.504;49.426;2023-09-18T06:31:53;34.10;23.25
67192;HTU21D;54120;53.504;49.426;2023-09-18T06:34:19;33.65;24.20
67192;HTU21D;54120;53.504;49.426;2023-09-18T06:36:45;33.81;23.14
67192;HTU21D;54120;53.504;49.426;2023-09-18T06:39:11;33.92;22.76
67192;HTU21D;54120;53.504;49.426;2023-09-18T06:41:37;33.32;23.82
67192;HTU21D;54120;53.504;49.426;2023-09-18T06:44:04;33.11;24.00
67192;HTU21D;54120;53.504;49.426;2023-09-18T06:46:30;33.80;23.05
67192;HTU21D;54120;53.504;49.426;2023-09-18T06:48:56;33.85;23.95
67192;HTU21D;54120;53.504;49.426;2023-09-18T06:51:23;33.57;24.06
67192;HTU21D;54120;53.504;49.426;2023-09-18T06:53:49;32.32;26.01
67192;HTU21D;54120;53.504;49.426;2023-09-18T06:56:16;32.12;25.75
67192;HTU21D;54120;53.504;49.426;2023-09-18T06:58:42;32.07;25.52
67192;HTU21D;54120;53.504;49.426;2023-09-18T07:01:08;30.82;27.85
67192;HTU21D;54120;53.504;49.426;2023-09-18T07:03:36;30.55;29.00
67192;HTU21D;54120;53.504;49.426;2023-09-18T07:06:03;29.33;31.63
67192;HTU21D;54120;53.504;49.426;2023-09-18T07:08:30;30.97;29.19
67192;HTU21D;54120;53.504;49.426;2023-09-18T07:10:59;30.26;30.35
67192;HTU21D;54120;53.504;49.426;2023-09-18T07:13:25;30.98;29.16
67192;HTU21D;54120;53.504;49.426;2023-09-18T07:15:51;31.58;27.47
67192;HTU21D;54120;53.504;49.426;2023-09-18T07:18:18;32.45;26.42
67192;HTU21D;54120;53.504;49.426;2023-09-18T07:20:44;32.62;24.36
67192;HTU21D;54120;53.504;49.426;2023-09-18T07:23:11;33.05;25.27
67192;HTU21D;54120;53.504;49.426;2023-09-18T07:25:37;31.38;28.66
67192;HTU21D;54120;53.504;49.426;2023-09-18T07:28:07;31.94;26.62
67192;HTU21D;54120;53.504;49.426;2023-09-18T07:30:34;32.09;26.62
67192;HTU21D;54120;53.504;49.426;2023-09-18T07:33:03;31.48;27.67
67192;HTU21D;54120;53.504;49.426;2023-09-18T07:35:29;28.94;32.52
67192;HTU21D;54120;53.504;49.426;2023-09-18T07:37:56;27.64;35.98
67192;HTU21D;54120;53.504;49.426;2023-09-18T07:40:23;26.17;37.70
67192;HTU21D;54120;53.504;49.426;2023-09-18T07:42:50;25.30;39.97
67192;HTU21D;54120;53.504;49.426;2023-09-18T07:45:16;24.35;42.76
67192;HTU21D;54120;53.504;49.426;2023-09-18T07:47:43;24.21;43.69
67192;HTU21D;54120;53.504;49.426;2023-09-18T07:50:09;24.32;44.53
67192;HTU21D;54120;53.504;49.426;2023-09-18T07:52:35;24.33;43.31
67192;HTU21D;54120;53.504;49.426;2023-09-18T07:55:02;23.99;44.90
67192;HTU21D;54120;53.504;49.426;2023-09-18T07:57:29;24.04;44.60
67192;HTU21D;54120;53.504;49.426;2023-09-18T07:59:56;24.27;43.98
67192;HTU21D;54120;53.504;49.426;2023-09-18T08:02:22;24.30;43.92
67192;HTU21D;54120;53.504;49.426;2023-09-18T08:04:49;24.14;44.01
67192;HTU21D;54120;53.504;49.426;2023-09-18T08:07:16;24.45;43.24
67192;HTU21D;54120;53.504;49.426;2023-09-18T08:09:42;24.91;42.33
67192;HTU21D;54120;53.504;49.426;2023-09-18T08:12:09;24.71;42.55
67192;HTU21D;54120;53.504;49.426;2023-09-18T08:14:35;24.12;44.32
67192;HTU21D;54120;53.504;49.426;2023-09-18T08:17:02;24.30;45.25
67192;HTU21D;54120;53.504;49.426;2023-09-18T08:19:32;23.97;44.21
67192;HTU21D;54120;53.504;49.426;2023-09-18T08:21:58;24.59;43.41
67192;HTU21D;54120;53.504;49.426;2023-09-18T08:24:29;24.84;41.58
67192;HTU21D;54120;53.504;49.426;2023-09-18T08:26:55;24.53;40.97
67192;HTU21D;54120;53.504;49.426;2023-09-18T08:29:22;23.98;43.60
67192;HTU21D;54120;53.504;49.426;2023-09-18T08:31:49;24.18;43.74
67192;HTU21D;54120;53.504;49.426;2023-09-18T08:34:16;24.54;43.29
67192;HTU21D;54120;53.504;49.426;2023-09-18T08:36:43;23.97;43.11
67192;HTU21D;54120;53.504;49.426;2023-09-18T08:39:09;24.02;44.18
67192;HTU21D;54120;53.504;49.426;2023-09-18T08:41:42;24.17;42.00
67192;HTU21D;54120;53.504;49.426;2023-09-18T08:44:09;23.71;42.23
67192;HTU21D;54120;53.504;49.426;2023-09-18T08:46:37;23.07;43.29
67192;HTU21D;54120;53.504;49.426;2023-09-18T08:49:04;22.66;43.51
67192;HTU21D;54120;53.504;49.426;2023-09-18T08:51:32;22.25;44.15
67192;HTU21D;54120;53.504;49.426;2023-09-18T08:53:58;22.07;44.64
67192;HTU21D;54120;53.504;49.426;2023-09-18T08:56:25;21.97;45.76
67192;HTU21D;54120;53.504;49.426;2023-09-18T08:58:53;21.83;45.66
67192;HTU21D;54120;53.504;49.426;2023-09-18T09:01:20;21.68;45.70
67192;HTU21D;54120;53.504;49.426;2023-09-18T09:03:47;21.62;45.77
67192;HTU21D;54120;53.504;49.426;2023-09-18T09:06:13;21.72;45.72
67192;HTU21D;54120;53.504;49.426;2023-09-18T09:08:39;22.02;44.99
67192;HTU21D;54120;53.504;49.426;2023-09-18T09:11:06;22.22;44.18
67192;HTU21D;54120;53.504;49.426;2023-09-18T09:13:32;22.38;44.28
67192;HTU21D;54120;53.504;49.426;2023-09-18T09:15:59;22.57;44.20
67192;HTU21D;54120;53.504;49.426;2023-09-18T09:18:28;22.49;43.69
67192;HTU21D;54120;53.504;49.426;2023-09-18T09:20:59;22.79;43.87
67192;HTU21D;54120;53.504;49.426;2023-09-18T09:23:50;23.01;44.50
67192;HTU21D;54120;53.504;49.426;2023-09-18T09:26:23;22.76;43.66
67192;HTU21D;54120;53.504;49.426;2023-09-18T09:28:50;22.63;42.80
67192;HTU21D;54120;53.504;49.426;2023-09-18T09:31:29;22.38;43.39
67192;HTU21D;54120;53.504;49.426;2023-09-18T09:33:56;21.89;44.48
67192;HTU21D;54120;53.504;49.426;2023-09-18T09:36:23;21.98;44.68
67192;HTU21D;54120;53.504;49.426;2023-09-18T09:38:57;22.21;44.60
67192;HTU21D;54120;53.504;49.426;2023-09-18T09:41:24;22.26;44.29
67192;HTU21D;54120;53.504;49.426;2023-09-18T09:43:54;22.08;44.29
67192;HTU21D;54120;53.504;49.426;2023-09-18T09:46:23;22.07;44.54
67192;HTU21D;54120;53.504;49.426;2023-09-18T09:49:02;22.23;44.87
67192;HTU21D;54120;53.504;49.426;2023-09-18T09:51:29;22.41;44.59
67192;HTU21D;54120;53.504;49.426;2023-09-18T09:53:57;22.52;44.96
67192;HTU21D;54120;53.504;49.426;2023-09-18T09:56:45;22.67;44.45
67192;HTU21D;54120;53.504;49.426;2023-09-18T09:59:13;22.66;45.19
67192;HTU21D;54120;53.504;49.426;2023-09-18T10:01:41;22.52;44.11
67192;HTU21D;54120;53.504;49.426;2023-09-18T10:04:12;22.44;44.61
67192;HTU21D;54120;53.504;49.426;2023-09-18T10:06:41;22.42;42.83
67192;HTU21D;54120;53.504;49.426;2023-09-18T10:09:10;22.38;42.73
67192;HTU21D;54120;53.504;49.426;2023-09-18T10:11:41;22.57;42.97
67192;HTU21D;54120;53.504;49.426;2023-09-18T10:14:19;23.10;43.00
67192;HTU21D;54120;53.504;49.426;2023-09-18T10:16:53;23.36;41.51
67192;HTU21D;54120;53.504;49.426;2023-09-18T10:19:32;23.46;41.16
67192;HTU21D;54120;53.504;49.426;2023-09-18T10:24:46;23.79;40.16
67192;HTU21D;54120;53.504;49.426;2023-09-18T10:27:14;23.87;40.65
67192;HTU21D;54120;53.504;49.426;2023-09-18T10:29:41;23.82;39.46
67192;HTU21D;54120;53.504;49.426;2023-09-18T10:32:08;23.44;40.38
67192;HTU21D;54120;53.504;49.426;2023-09-18T10:34:35;23.22;41.61
67192;HTU21D;54120;53.504;49.426;2023-09-18T10:37:03;23.38;40.98
67192;HTU21D;54120;53.504;49.426;2023-09-18T10:39:35;23.42;40.02
67192;HTU21D;54120;53.504;49.426;2023-09-18T10:42:03;23.23;39.86
67192;HTU21D;54120;53.504;49.426;2023-09-18T10:44:31;23.17;40.19
67192;HTU21D;54120;53.504;49.426;2023-09-18T10:47:01;23.07;40.75
67192;HTU21D;54120;53.504;49.426;2023-09-18T10:49:29;22.94;40.88
67192;HTU21D;54120;53.504;49.426;2023-09-18T10:51:56;23.16;40.82
67192;HTU21D;54120;53.504;49.426;2023-09-18T10:54:26;23.41;40.78
67192;HTU21D;54120;53.504;49.426;2023-09-18T10:56:55;23.28;40.65
67192;HTU21D;54120;53.504;49.426;2023-09-18T10:59:22;23.08;40.94
67192;HTU21D;54120;53.504;49.426;2023-09-18T11:01:48;22.90;42.00
67192;HTU21D;54120;53.504;49.426;2023-09-18T11:04:20;22.91;43.02
67192;HTU21D;54120;53.504;49.426;2023-09-18T11:09:28;23.42;40.96
67192;HTU21D;54120;53.504;49.426;2023-09-18T11:14:49;23.27;39.47
67192;HTU21D;54120;53.504;49.426;2023-09-18T11:22:36;23.59;39.01
67192;HTU21D;54120;53.504;49.426;2023-09-18T11:25:28;23.57;39.59
67192;HTU21D;54120;53.504;49.426;2023-09-18T11:27:57;23.28;40.32
67192;HTU21D;54120;53.504;49.426;2023-09-18T11:30:24;23.39;40.02
67192;HTU21D;54120;53.504;49.426;2023-09-18T11:32:51;23.52;40.11
67192;HTU21D;54120;53.504;49.426;2023-09-18T11:35:18;23.73;40.17
67192;HTU21D;54120;53.504;49.426;2023-09-18T11:38:03;23.73;39.94
67192;HTU21D;54120;53.504;49.426;2023-09-18T11:40:34;23.54;40.47
67192;HTU21D;54120;53.504;49.426;2023-09-18T11:45:49;22.84;41.21
67192;HTU21D;54120;53.504;49.426;2023-09-18T11:48:16;22.97;41.28
67192;HTU21D;54120;53.504;49.426;2023-09-18T11:50:44;23.18;41.46
67192;HTU21D;54120;53.504;49.426;2023-09-18T11:53:11;23.36;40.68
67192;HTU21D;54120;53.504;49.426;2023-09-18T11:55:39;23.02;42.41
67192;HTU21D;54120;53.504;49.426;2023-09-18T11:58:06;22.91;41.00
67192;HTU21D;54120;53.504;49.426;2023-09-18T12:00:37;22.85;42.26
67192;HTU21D;54120;53.504;49.426;2023-09-18T12:03:22;22.72;41.94
67192;HTU21D;54120;53.504;49.426;2023-09-18T12:06:00;22.69;42.31
67192;HTU21D;54120;53.504;49.426;2023-09-18T12:08:28;22.80;42.03
67192;HTU21D;54120;53.504;49.426;2023-09-18T12:10:58;22.85;42.29
67192;HTU21D;54120;53.504;49.426;2023-09-18T12:13:25;22.81;41.10
67192;HTU21D;54120;53.504;49.426;2023-09-18T12:16:03;22.72;41.62
67192;HTU21D;54120;53.504;49.426;2023-09-18T12:18:32;22.85;41.38
67192;HTU21D;54120;53.504;49.426;2023-09-18T12:21:06;22.91;41.76
67192;HTU21D;54120;53.504;49.426;2023-09-18T12:23:39;23.08;42.45
67192;HTU21D;54120;53.504;49.426;2023-09-18T12:26:06;23.07;43.72
67192;HTU21D;54120;53.504;49.426;2023-09-18T12:28:36;23.13;42.65
67192;HTU21D;54120;53.504;49.426;2023-09-18T12:31:03;23.00;43.58
67192;HTU21D;54120;53.504;49.426;2023-09-18T12:33:35;22.97;44.19
67192;HTU21D;54120;53.504;49.426;2023-09-18T12:36:03;23.03;43.80
67192;HTU21D;54120;53.504;49.426;2023-09-18T12:38:31;22.93;44.66
67192;HTU21D;54120;53.504;49.426;2023-09-18T12:40:57;22.79;44.77
67192;HTU21D;54120;53.504;49.426;2023-09-18T12:43:37;22.63;44.94
67192;HTU21D;54120;53.504;49.426;2023-09-18T12:46:08;22.76;44.49
67192;HTU21D;54120;53.504;49.426;2023-09-18T12:48:39;22.66;44.22
67192;HTU21D;54120;53.504;49.426;2023-09-18T12:51:13;22.69;44.38
67192;HTU21D;54120;53.504;49.426;2023-09-18T12:53:40;22.56;45.58
67192;HTU21D;54120;53.504;49.426;2023-09-18T12:56:13;22.49;46.29
67192;HTU21D;54120;53.504;49.426;2023-09-18T12:58:40;22.33;46.64
67192;HTU21D;54120;53.504;49.426;2023-09-18T13:01:08;22.20;47.38
67192;HTU21D;54120;53.504;49.426;2023-09-18T13:03:41;22.32;46.99
67192;HTU21D;54120;53.504;49.426;2023-09-18T13:06:15;22.25;46.02
67192;HTU21D;54120;53.504;49.426;2023-09-18T13:08:43;22.34;46.43
67192;HTU21D;54120;53.504;49.426;2023-09-18T13:11:10;22.39;45.83
67192;HTU21D;54120;53.504;49.426;2023-09-18T13:13:42;22.27;45.93
67192;HTU21D;54120;53.504;49.426;2023-09-18T13:16:09;22.23;47.73
67192;HTU21D;54120;53.504;49.426;2023-09-18T13:18:36;22.08;47.87
67192;HTU21D;54120;53.504;49.426;2023-09-18T13:21:12;21.88;48.25
67192;HTU21D;54120;53.504;49.426;2023-09-18T13:23:39;21.74;48.84
67192;HTU21D;54120;53.504;49.426;2023-09-18T13:26:07;21.62;49.41
67192;HTU21D;54120;53.504;49.426;2023-09-18T13:28:36;21.57;48.17
67192;HTU21D;54120;53.504;49.426;2023-09-18T13:31:06;21.43;48.57
67192;HTU21D;54120;53.504;49.426;2023-09-18T13:33:32;21.32;49.82
67192;HTU21D;54120;53.504;49.426;2023-09-18T13:35:59;21.22;49.93
67192;HTU21D;54120;53.504;49.426;2023-09-18T13:38:26;21.11;50.30
67192;HTU21D;54120;53.504;49.426;2023-09-18T13:40:54;21.07;50.87
67192;HTU21D;54120;53.504;49.426;2023-09-18T13:43:21;20.91;51.51
67192;HTU21D;54120;53.504;49.426;2023-09-18T13:45:50;20.75;51.92
67192;HTU21D;54120;53.504;49.426;2023-09-18T13:48:19;20.71;52.27
67192;HTU21D;54120;53.504;49.426;2023-09-18T13:50:46;20.59;51.23
67192;HTU21D;54120;53.504;49.426;2023-09-18T13:53:13;20.47;51.72
67192;HTU21D;54120;53.504;49.426;2023-09-18T13:55:40;20.35;51.82
67192;HTU21D;54120;53.504;49.426;2023-09-18T13:58:06;20.25;52.30
67192;HTU21D;54120;53.504;49.426;2023-09-18T14:00:33;20.16;53.37
67192;HTU21D;54120;53.504;49.426;2023-09-18T14:02:59;20.02;53.70
67192;HTU21D;54120;53.504;49.426;2023-09-18T14:05:25;19.95;54.97
67192;HTU21D;54120;53.504;49.426;2023-09-18T14:07:52;19.77;55.52
67192;HTU21D;54120;53.504;49.426;2023-09-18T14:10:25;19.58;56.75
67192;HTU21D;54120;53.504;49.426;2023-09-18T14:12:51;19.47;57.48
67192;HTU21D;54120;53.504;49.426;2023-09-18T14:15:18;19.40;58.74
67192;HTU21D;54120;53.504;49.426;2023-09-18T14:17:44;19.25;57.93
67192;HTU21D;54120;53.504;49.426;2023-09-18T14:20:10;19.11;59.04
67192;HTU21D;54120;53.504;49.426;2023-09-18T14:22:36;19.02;59.54
67192;HTU21D;54120;53.504;49.426;2023-09-18T14:25:03;18.97;58.06
67192;HTU21D;54120;53.504;49.426;2023-09-18T14:27:32;18.95;59.51
67192;HTU21D;54120;53.504;49.426;2023-09-18T14:29:58;18.95;59.03
67192;HTU21D;54120;53.504;49.426;2023-09-18T14:32:25;18.89;61.95
67192;HTU21D;54120;53.504;49.426;2023-09-18T14:34:51;18.67;60.50
67192;HTU21D;54120;53.504;49.426;2023-09-18T14:37:17;18.52;60.28
67192;HTU21D;54120;53.504;49.426;2023-09-18T14:39:43;18.36;61.96
67192;HTU21D;54120;53.504;49.426;2023-09-18T14:42:10;18.39;62.44
67192;HTU21D;54120;53.504;49.426;2023-09-18T14:44:38;18.41;64.30
67192;HTU21D;54120;53.504;49.426;2023-09-18T14:47:13;18.33;63.36
67192;HTU21D;54120;53.504;49.426;2023-09-18T14:49:39;18.25;64.85
67192;HTU21D;54120;53.504;49.426;2023-09-18T14:52:06;18.17;63.82
67192;HTU21D;54120;53.504;49.426;2023-09-18T14:54:34;18.11;64.39
67192;HTU21D;54120;53.504;49.426;2023-09-18T14:57:00;18.06;65.33
67192;HTU21D;54120;53.504;49.426;2023-09-18T14:59:28;18.03;64.73
67192;HTU21D;54120;53.504;49.426;2023-09-18T15:01:55;17.98;65.30
67192;HTU21D;54120;53.504;49.426;2023-09-18T15:04:22;17.98;66.15
67192;HTU21D;54120;53.504;49.426;2023-09-18T15:06:49;17.90;65.74
67192;HTU21D;54120;53.504;49.426;2023-09-18T15:09:16;17.90;66.61
67192;HTU21D;54120;53.504;49.426;2023-09-18T15:11:46;17.65;67.88
67192;HTU21D;54120;53.504;49.426;2023-09-18T15:14:12;17.49;68.78
67192;HTU21D;54120;53.504;49.426;2023-09-18T15:16:38;17.37;68.61
67192;HTU21D;54120;53.504;49.426;2023-09-18T15:19:05;17.41;68.84
67192;HTU21D;54120;53.504;49.426;2023-09-18T15:21:32;17.45;68.44
67192;HTU21D;54120;53.504;49.426;2023-09-18T15:23:59;17.48;68.45
67192;HTU21D;54120;53.504;49.426;2023-09-18T15:26:26;17.37;69.33